createdAt,value
2023-05-21T00:01:37.309Z,46.14
2023-05-21T00:04:04.190Z,46.10
2023-05-21T00:06:32.090Z,46.33
2023-05-21T00:08:58.963Z,46.34
2023-05-21T00:11:26.259Z,46.23
2023-05-21T00:13:53.092Z,46.10
2023-05-21T00:16:19.948Z,46.51
2023-05-21T00:18:47.790Z,46.57
2023-05-21T00:21:17.535Z,46.03
2023-05-21T00:23:45.664Z,46.61
2023-05-21T00:26:12.454Z,46.20
2023-05-21T00:28:39.250Z,45.96
2023-05-21T00:31:06.660Z,46.63
2023-05-21T00:33:34.243Z,45.98
2023-05-21T00:36:02.294Z,46.56
2023-05-21T00:38:29.110Z,46.43
2023-05-21T00:40:55.916Z,46.61
2023-05-21T00:43:26.409Z,46.27
2023-05-21T00:45:54.103Z,46.26
2023-05-21T00:48:21.168Z,46.67
2023-05-21T00:50:51.379Z,46.28
2023-05-21T00:53:19.694Z,46.27
2023-05-21T00:55:46.972Z,46.48
2023-05-21T00:58:14.456Z,46.44
2023-05-21T01:00:42.005Z,46.33
2023-05-21T01:03:09.527Z,46.03
2023-05-21T01:05:37.179Z,46.32
2023-05-21T01:08:05.020Z,46.73
2023-05-21T01:10:32.042Z,46.47
2023-05-21T01:13:00.120Z,46.10
2023-05-21T01:15:27.711Z,46.41
2023-05-21T01:17:56.070Z,46.45
2023-05-21T01:20:23.987Z,47.08
2023-05-21T01:22:54.498Z,46.72
2023-05-21T01:25:22.356Z,46.38
2023-05-21T01:27:49.944Z,46.46
2023-05-21T01:30:22.466Z,46.29
2023-05-21T01:33:08.256Z,46.68
2023-05-21T01:35:56.332Z,46.70
2023-05-21T01:38:28.746Z,46.66
2023-05-21T01:40:59.129Z,46.69
2023-05-21T01:43:29.564Z,46.26
2023-05-21T01:45:57.623Z,46.46
2023-05-21T01:48:27.592Z,46.86
2023-05-21T01:50:57.673Z,46.42
2023-05-21T01:53:24.833Z,46.63
2023-05-21T01:55:51.682Z,45.97
2023-05-21T01:58:19.155Z,46.40
2023-05-21T02:00:46.857Z,46.72
2023-05-21T02:03:17.619Z,46.41
2023-05-21T02:05:44.742Z,46.11
2023-05-21T02:08:13.266Z,46.25
2023-05-21T02:10:40.058Z,46.49
2023-05-21T02:13:07.133Z,46.54
2023-05-21T02:15:37.307Z,46.46
2023-05-21T02:18:04.690Z,46.15
2023-05-21T02:20:31.693Z,46.26
2023-05-21T02:22:58.519Z,46.25
2023-05-21T02:25:25.681Z,46.15
2023-05-21T02:27:53.832Z,46.25
2023-05-21T02:30:21.135Z,46.84
2023-05-21T02:32:50.119Z,46.27
2023-05-21T02:35:17.095Z,46.25
2023-05-21T02:37:46.585Z,46.81
2023-05-21T02:40:13.746Z,46.18
2023-05-21T02:42:41.633Z,46.10
2023-05-21T02:45:12.457Z,46.26
2023-05-21T02:47:39.426Z,46.67
2023-05-21T02:50:07.909Z,47.21
2023-05-21T02:52:34.980Z,46.55
2023-05-21T02:55:01.828Z,47.00
2023-05-21T02:57:28.635Z,46.56
2023-05-21T02:59:55.459Z,46.55
2023-05-21T03:02:22.414Z,46.87
2023-05-21T03:04:51.058Z,46.57
2023-05-21T03:07:21.022Z,47.00
2023-05-21T03:09:47.957Z,46.31
2023-05-21T03:12:14.815Z,46.88
2023-05-21T03:14:44.348Z,46.58
2023-05-21T03:17:14.165Z,46.66
2023-05-21T03:19:44.860Z,46.90
2023-05-21T03:22:11.890Z,46.78
2023-05-21T03:24:39.318Z,46.67
2023-05-21T03:27:07.304Z,46.95
2023-05-21T03:29:35.012Z,46.34
2023-05-21T03:32:02.472Z,46.30
2023-05-21T03:34:29.325Z,46.62
2023-05-21T03:36:56.143Z,46.83
2023-05-21T03:39:23.061Z,46.54
2023-05-21T03:41:49.868Z,46.55
2023-05-21T03:44:16.870Z,46.34
2023-05-21T03:46:45.664Z,46.68
2023-05-21T03:49:12.648Z,46.34
2023-05-21T03:51:39.851Z,46.77
2023-05-21T03:54:06.822Z,46.36
2023-05-21T03:56:33.656Z,46.98
2023-05-21T03:59:01.476Z,46.63
2023-05-21T04:01:28.717Z,46.06
2023-05-21T04:03:56.116Z,46.73
2023-05-21T04:06:23.115Z,46.79
2023-05-21T04:08:50.515Z,46.28
2023-05-21T04:11:17.401Z,46.90
2023-05-21T04:13:44.231Z,46.62
2023-05-21T04:16:11.206Z,46.92
2023-05-21T04:18:38.258Z,47.14
2023-05-21T04:21:05.327Z,46.27
2023-05-21T04:23:32.201Z,46.64
2023-05-21T04:25:59.193Z,46.89
2023-05-21T04:28:29.050Z,46.34
2023-05-21T04:30:56.750Z,46.58
2023-05-21T04:33:24.798Z,46.70
2023-05-21T04:35:52.106Z,46.84
2023-05-21T04:38:20.941Z,46.29
2023-05-21T04:40:51.101Z,46.84
2023-05-21T04:43:18.582Z,46.89
2023-05-21T04:45:45.452Z,46.79
2023-05-21T04:48:12.907Z,46.76
2023-05-21T04:50:41.752Z,46.82
2023-05-21T04:53:09.022Z,46.29
2023-05-21T04:55:40.013Z,46.38
2023-05-21T04:58:07.615Z,46.46
2023-05-21T05:00:34.819Z,46.82
2023-05-21T05:03:01.834Z,46.51
2023-05-21T05:05:28.679Z,46.46
2023-05-21T05:07:56.666Z,46.44
2023-05-21T05:10:23.557Z,46.44
2023-05-21T05:12:50.468Z,46.68
2023-05-21T05:15:17.326Z,45.96
2023-05-21T05:17:44.981Z,46.30
2023-05-21T05:20:12.058Z,45.93
2023-05-21T05:22:39.114Z,46.22
2023-05-21T05:25:06.736Z,46.60
2023-05-21T05:27:35.490Z,45.96
2023-05-21T05:30:04.337Z,46.22
2023-05-21T05:32:31.153Z,46.40
2023-05-21T05:34:58.529Z,46.29
2023-05-21T05:37:26.326Z,46.14
2023-05-21T05:39:53.426Z,46.07
2023-05-21T05:42:20.278Z,46.08
2023-05-21T05:44:47.133Z,46.13
2023-05-21T05:47:14.099Z,46.11
2023-05-21T05:49:41.293Z,46.37
2023-05-21T05:52:08.370Z,46.48
2023-05-21T05:54:35.176Z,46.06
2023-05-21T05:57:02.015Z,46.10
2023-05-21T05:59:28.825Z,46.41
2023-05-21T06:01:55.668Z,46.11
2023-05-21T06:04:22.585Z,46.46
2023-05-21T06:06:49.456Z,45.75
2023-05-21T06:09:16.393Z,45.91
2023-05-21T06:11:43.287Z,46.04
2023-05-21T06:14:10.117Z,46.25
2023-05-21T06:16:37.493Z,45.91
2023-05-21T06:19:04.406Z,45.82
2023-05-21T06:21:31.538Z,46.11
2023-05-21T06:23:58.659Z,45.91
2023-05-21T06:26:25.716Z,46.39
2023-05-21T06:28:52.786Z,46.03
2023-05-21T06:31:22.588Z,46.17
2023-05-21T06:33:50.402Z,46.53
2023-05-21T06:36:17.348Z,46.42
2023-05-21T06:38:44.248Z,46.22
2023-05-21T06:41:11.246Z,46.61
2023-05-21T06:43:38.104Z,46.16
2023-05-21T06:46:05.016Z,46.13
2023-05-21T06:48:31.882Z,46.09
2023-05-21T06:50:58.749Z,45.78
2023-05-21T06:53:25.886Z,46.23
2023-05-21T06:55:54.090Z,45.86
2023-05-21T06:58:21.829Z,46.15
2023-05-21T07:00:49.273Z,46.35
2023-05-21T07:03:16.612Z,46.37
2023-05-21T07:05:43.774Z,46.31
2023-05-21T07:08:12.019Z,46.16
2023-05-21T07:10:39.395Z,46.20
2023-05-21T07:13:06.359Z,46.62
2023-05-21T07:15:33.257Z,46.75
2023-05-21T07:18:00.222Z,46.75
2023-05-21T07:20:27.130Z,46.18
2023-05-21T07:22:53.956Z,46.46
2023-05-21T07:25:20.964Z,46.16
2023-05-21T07:27:47.747Z,45.88
2023-05-21T07:30:15.249Z,46.33
2023-05-21T07:32:42.448Z,46.02
2023-05-21T07:35:09.811Z,45.68
2023-05-21T07:37:36.782Z,46.50
2023-05-21T07:40:04.546Z,45.91
2023-05-21T07:42:31.509Z,46.21
2023-05-21T07:44:58.403Z,46.05
2023-05-21T07:47:25.421Z,45.70
2023-05-21T07:49:52.278Z,46.10
2023-05-21T07:52:19.213Z,45.73
2023-05-21T07:54:46.123Z,45.58
2023-05-21T07:57:12.923Z,45.69
2023-05-21T07:59:39.844Z,45.16
2023-05-21T08:02:06.673Z,45.77
2023-05-21T08:04:33.647Z,45.18
2023-05-21T08:07:00.457Z,46.17
2023-05-21T08:09:27.306Z,45.42
2023-05-21T08:11:54.191Z,45.61
2023-05-21T08:14:21.059Z,45.03
2023-05-21T08:16:47.915Z,45.66
2023-05-21T08:19:14.996Z,45.28
2023-05-21T08:21:44.477Z,45.26
2023-05-21T08:24:11.499Z,45.48
2023-05-21T08:26:38.322Z,45.10
2023-05-21T08:29:05.853Z,45.36
2023-05-21T08:31:32.785Z,45.86
2023-05-21T08:33:59.694Z,45.65
2023-05-21T08:36:32.313Z,45.57
2023-05-21T08:39:03.904Z,45.29
2023-05-21T08:41:32.847Z,45.49
2023-05-21T08:44:02.732Z,45.80
2023-05-21T08:46:34.849Z,45.34
2023-05-21T08:49:03.511Z,45.20
2023-05-21T08:51:31.685Z,45.30
2023-05-21T08:54:00.240Z,45.16
2023-05-21T08:56:27.575Z,45.84
2023-05-21T08:58:55.163Z,45.35
2023-05-21T09:01:24.133Z,45.38
2023-05-21T09:04:04.894Z,45.84
2023-05-21T09:10:13.467Z,45.87
2023-05-21T09:12:40.747Z,46.19
2023-05-21T09:15:08.301Z,45.58
2023-05-21T09:17:35.296Z,46.07
2023-05-21T09:20:09.993Z,46.15
2023-05-21T09:22:47.773Z,46.07
2023-05-21T09:25:22.144Z,45.44
2023-05-21T09:27:49.272Z,45.63
2023-05-21T09:30:18.573Z,45.98
2023-05-21T09:32:46.510Z,45.27
2023-05-21T09:35:14.792Z,45.43
2023-05-21T09:37:44.224Z,45.30
2023-05-21T09:40:18.669Z,45.51
2023-05-21T09:42:50.662Z,45.79
2023-05-21T09:45:21.145Z,44.98
2023-05-21T09:47:49.457Z,45.64
2023-05-21T09:50:27.214Z,45.72
2023-05-21T09:52:55.712Z,45.11
2023-05-21T09:55:24.060Z,45.40
2023-05-21T09:57:51.990Z,45.06
2023-05-21T10:00:24.347Z,44.76
2023-05-21T10:02:55.594Z,45.59
2023-05-21T10:05:27.322Z,45.45
2023-05-21T10:08:04.568Z,45.51
2023-05-21T10:10:32.336Z,45.28
2023-05-21T10:13:07.405Z,45.61
2023-05-21T10:15:47.351Z,45.56
2023-05-21T10:18:15.624Z,45.11
2023-05-21T10:20:43.260Z,45.29
2023-05-21T10:23:10.720Z,45.10
2023-05-21T10:25:37.933Z,45.12
2023-05-21T10:28:07.218Z,45.20
2023-05-21T10:30:36.669Z,45.76
2023-05-21T10:33:04.761Z,45.46
2023-05-21T10:35:33.969Z,45.43
2023-05-21T10:38:04.550Z,45.66
2023-05-21T10:40:31.749Z,45.30
2023-05-21T10:43:14.426Z,45.67
2023-05-21T10:46:02.429Z,45.18
2023-05-21T10:48:42.200Z,45.37
2023-05-21T10:51:20.475Z,45.82
2023-05-21T10:54:04.505Z,44.57
2023-05-21T10:56:41.302Z,45.00
2023-05-21T10:59:32.296Z,45.28
2023-05-21T11:02:00.206Z,45.03
2023-05-21T11:04:28.337Z,45.32
2023-05-21T11:06:56.655Z,45.17
2023-05-21T11:09:23.590Z,45.23
2023-05-21T11:11:58.442Z,45.26
2023-05-21T11:14:40.808Z,45.14
2023-05-21T11:17:07.722Z,44.73
2023-05-21T11:19:41.869Z,45.39
2023-05-21T11:22:10.114Z,44.67
2023-05-21T11:24:41.600Z,44.74
2023-05-21T11:27:08.941Z,44.74
2023-05-21T11:29:40.827Z,45.00
2023-05-21T11:32:15.789Z,45.03
2023-05-21T11:34:46.165Z,44.97
2023-05-21T11:37:20.825Z,45.32
2023-05-21T11:39:48.755Z,45.00
2023-05-21T11:42:39.012Z,44.45
2023-05-21T11:45:06.507Z,44.97
2023-05-21T11:47:33.831Z,44.85
2023-05-21T11:50:02.675Z,44.54
2023-05-21T11:52:31.074Z,44.85
2023-05-21T11:54:59.933Z,44.32
2023-05-21T11:57:31.097Z,44.65
2023-05-21T11:59:59.857Z,44.95
2023-05-21T12:02:31.282Z,44.69
2023-05-21T12:05:01.019Z,44.18
2023-05-21T12:07:30.057Z,44.55
2023-05-21T12:10:01.193Z,44.52
2023-05-21T12:12:35.522Z,44.18
2023-05-21T12:15:13.717Z,44.82
2023-05-21T12:17:41.393Z,44.38
2023-05-21T12:20:10.927Z,44.02
2023-05-21T12:22:42.702Z,44.63
2023-05-21T12:25:10.525Z,43.92
2023-05-21T12:27:37.577Z,44.43
2023-05-21T12:30:06.080Z,44.05
2023-05-21T12:32:33.144Z,44.72
2023-05-21T12:35:00.309Z,44.50
2023-05-21T12:37:32.609Z,44.47
2023-05-21T12:40:01.598Z,43.73
2023-05-21T12:42:35.834Z,43.54
2023-05-21T12:45:10.085Z,44.26
2023-05-21T12:47:37.405Z,43.46
2023-05-21T12:50:08.546Z,43.79
2023-05-21T12:52:35.433Z,44.24
2023-05-21T12:55:02.302Z,44.51
2023-05-21T12:57:37.194Z,44.25
2023-05-21T13:00:07.209Z,43.76
2023-05-21T13:02:35.101Z,43.52
2023-05-21T13:05:06.673Z,43.95
2023-05-21T13:07:38.406Z,44.28
2023-05-21T13:10:06.281Z,44.06
2023-05-21T13:12:34.354Z,43.44
2023-05-21T13:15:02.905Z,44.01
2023-05-21T13:17:29.799Z,43.87
2023-05-21T13:20:12.857Z,43.88
2023-05-21T13:22:42.847Z,43.47
2023-05-21T13:25:15.979Z,43.21
2023-05-21T13:27:43.967Z,43.13
2023-05-21T13:30:14.180Z,43.07
2023-05-21T13:32:42.620Z,43.37
2023-05-21T13:35:11.541Z,43.04
2023-05-21T13:37:41.312Z,43.59
2023-05-21T13:40:15.443Z,42.87
2023-05-21T13:42:47.940Z,42.87
2023-05-21T13:45:17.634Z,42.97
2023-05-21T13:47:45.321Z,43.29
2023-05-21T13:50:13.046Z,42.93
2023-05-21T13:52:40.226Z,43.93
2023-05-21T13:55:07.483Z,43.15
2023-05-21T13:57:34.499Z,43.78
2023-05-21T14:00:01.737Z,43.48
2023-05-21T14:02:28.989Z,43.21
2023-05-21T14:04:55.951Z,43.62
2023-05-21T14:07:22.883Z,43.26
2023-05-21T14:09:49.984Z,43.29
2023-05-21T14:12:17.409Z,43.72
2023-05-21T14:14:44.375Z,43.30
2023-05-21T14:17:11.849Z,43.19
2023-05-21T14:19:38.820Z,43.39
2023-05-21T14:22:05.920Z,43.13
2023-05-21T14:24:33.125Z,42.82
2023-05-21T14:26:59.993Z,43.43
2023-05-21T14:29:26.834Z,43.72
2023-05-21T14:31:53.801Z,42.46
2023-05-21T14:34:20.840Z,42.51
2023-05-21T14:36:47.688Z,42.52
2023-05-21T14:39:14.762Z,42.82
2023-05-21T14:41:44.674Z,43.82
2023-05-21T14:44:11.608Z,43.95
2023-05-21T14:46:39.660Z,44.13
2023-05-21T14:49:06.650Z,44.48
2023-05-21T14:51:33.550Z,43.65
2023-05-21T14:54:00.459Z,43.01
2023-05-21T14:56:28.341Z,43.08
2023-05-21T14:58:55.838Z,43.14
2023-05-21T15:01:22.865Z,42.74
2023-05-21T15:03:50.023Z,43.05
2023-05-21T15:06:17.589Z,43.48
2023-05-21T15:08:44.504Z,43.06
2023-05-21T15:11:11.775Z,43.48
2023-05-21T15:13:39.723Z,42.75
2023-05-21T15:16:07.021Z,43.17
2023-05-21T15:18:34.040Z,43.46
2023-05-21T15:21:01.144Z,43.39
2023-05-21T15:23:28.309Z,43.10
2023-05-21T15:25:55.374Z,42.81
2023-05-21T15:28:23.338Z,43.07
2023-05-21T15:30:50.540Z,42.86
2023-05-21T15:33:18.053Z,42.37
2023-05-21T15:35:45.350Z,42.45
2023-05-21T15:38:15.156Z,42.64
2023-05-21T15:40:42.526Z,43.02
2023-05-21T15:43:09.436Z,42.57
2023-05-21T15:45:38.791Z,43.55
2023-05-21T15:48:06.587Z,43.59
2023-05-21T15:50:35.881Z,43.68
2023-05-21T15:53:04.148Z,44.87
2023-05-21T15:55:34.295Z,44.48
2023-05-21T15:58:02.577Z,45.11
2023-05-21T16:00:29.654Z,45.03
2023-05-21T16:02:56.597Z,44.67
2023-05-21T16:05:23.733Z,44.84
2023-05-21T16:07:50.695Z,44.39
2023-05-21T16:10:17.682Z,44.43
2023-05-21T16:12:44.639Z,44.45
2023-05-21T16:15:11.735Z,44.53
2023-05-21T16:17:38.659Z,44.83
2023-05-21T16:20:06.700Z,44.58
2023-05-21T16:22:33.513Z,44.83
2023-05-21T16:25:00.324Z,44.92
2023-05-21T16:27:27.245Z,45.29
2023-05-21T16:29:54.125Z,45.01
2023-05-21T16:32:21.502Z,45.20
2023-05-21T16:34:48.758Z,45.23
2023-05-21T16:37:15.671Z,44.70
2023-05-21T16:39:42.545Z,45.33
2023-05-21T16:42:09.377Z,45.45
2023-05-21T16:44:37.987Z,45.20
2023-05-21T16:47:05.388Z,44.89
2023-05-21T16:49:32.238Z,44.76
2023-05-21T16:51:59.141Z,44.71
2023-05-21T16:54:29.635Z,45.14
2023-05-21T16:56:56.713Z,45.27
2023-05-21T16:59:23.655Z,45.52
2023-05-21T17:01:50.785Z,45.40
2023-05-21T17:04:17.659Z,45.42
2023-05-21T17:06:44.551Z,45.38
2023-05-21T17:09:18.801Z,45.31
2023-05-21T17:11:46.030Z,45.40
2023-05-21T17:14:17.566Z,45.52
2023-05-21T17:16:50.627Z,45.95
2023-05-21T17:19:17.502Z,45.14
2023-05-21T17:21:44.401Z,45.53
2023-05-21T17:24:11.260Z,46.02
2023-05-21T17:26:38.096Z,45.74
2023-05-21T17:29:04.894Z,45.13
2023-05-21T17:31:33.174Z,45.73
2023-05-21T17:34:00.590Z,45.79
2023-05-21T17:36:27.406Z,45.75
2023-05-21T17:38:54.199Z,45.34
2023-05-21T17:41:22.026Z,45.77
2023-05-21T17:43:48.907Z,45.73
2023-05-21T17:46:17.773Z,45.44
2023-05-21T17:48:45.754Z,46.04
2023-05-21T17:51:13.176Z,46.27
2023-05-21T17:53:41.363Z,45.98
2023-05-21T17:56:08.718Z,45.59
2023-05-21T17:58:35.526Z,45.96
2023-05-21T18:01:02.963Z,46.40
2023-05-21T18:03:30.324Z,46.37
2023-05-21T18:05:57.146Z,45.60
2023-05-21T18:08:24.038Z,46.22
2023-05-21T18:10:50.986Z,46.22
2023-05-21T18:13:17.831Z,46.06
2023-05-21T18:15:44.717Z,46.36
2023-05-21T18:18:20.695Z,46.21
2023-05-21T18:20:48.636Z,46.48
2023-05-21T18:23:15.942Z,45.81
2023-05-21T18:25:42.803Z,46.39
2023-05-21T18:28:10.256Z,45.84
2023-05-21T18:30:37.263Z,46.43
2023-05-21T18:33:04.473Z,45.91
2023-05-21T18:35:31.426Z,46.68
2023-05-21T18:37:58.258Z,46.21
2023-05-21T18:40:30.483Z,45.88
2023-05-21T18:42:57.660Z,46.24
2023-05-21T18:45:24.499Z,45.95
2023-05-21T18:47:51.710Z,46.50
2023-05-21T18:50:19.742Z,46.57
2023-05-21T18:52:47.213Z,46.03
2023-05-21T18:55:14.897Z,46.93
2023-05-21T18:57:41.690Z,46.10
2023-05-21T19:00:09.987Z,46.14
2023-05-21T19:02:37.706Z,46.31
2023-05-21T19:05:05.281Z,46.36
2023-05-21T19:07:32.353Z,46.31
2023-05-21T19:10:00.486Z,46.40
2023-05-21T19:12:27.677Z,46.25
2023-05-21T19:14:54.584Z,46.45
2023-05-21T19:17:21.544Z,46.68
2023-05-21T19:19:54.455Z,46.34
2023-05-21T19:22:25.812Z,46.24
2023-05-21T19:24:53.217Z,46.35
2023-05-21T19:27:21.113Z,46.65
2023-05-21T19:29:48.401Z,46.52
2023-05-21T19:32:19.040Z,46.37
2023-05-21T19:34:46.875Z,46.47
2023-05-21T19:37:14.035Z,47.09
2023-05-21T19:39:42.637Z,46.58
2023-05-21T19:42:10.484Z,46.61
2023-05-21T19:44:43.243Z,46.57
2023-05-21T19:47:10.100Z,46.86
2023-05-21T19:49:37.053Z,46.47
2023-05-21T19:52:05.358Z,46.44
2023-05-21T19:54:32.280Z,46.58
2023-05-21T19:56:59.231Z,46.77
2023-05-21T19:59:26.521Z,46.88
2023-05-21T20:01:53.556Z,46.41
2023-05-21T20:04:20.463Z,46.76
2023-05-21T20:06:47.392Z,46.65
2023-05-21T20:09:14.358Z,46.92
2023-05-21T20:11:42.560Z,46.41
2023-05-21T20:14:09.552Z,46.84
2023-05-21T20:16:37.087Z,46.56
2023-05-21T20:19:04.271Z,46.30
2023-05-21T20:21:34.531Z,46.90
2023-05-21T20:24:04.241Z,47.09
2023-05-21T20:26:35.155Z,46.71
2023-05-21T20:29:02.219Z,46.29
2023-05-21T20:31:29.408Z,46.91
2023-05-21T20:33:56.421Z,46.57
2023-05-21T20:36:24.069Z,47.30
2023-05-21T20:38:51.019Z,46.49
2023-05-21T20:41:18.102Z,46.40
2023-05-21T20:43:46.206Z,46.46
2023-05-21T20:46:13.771Z,47.00
2023-05-21T20:48:42.020Z,46.43
2023-05-21T20:51:11.633Z,47.14
2023-05-21T20:53:38.484Z,47.29
2023-05-21T20:56:08.406Z,46.94
2023-05-21T20:58:35.239Z,46.68
2023-05-21T21:01:02.155Z,46.71
2023-05-21T21:03:30.081Z,46.96
2023-05-21T21:05:58.202Z,46.85
2023-05-21T21:08:25.076Z,46.80
2023-05-21T21:10:51.891Z,46.45
2023-05-21T21:13:18.792Z,46.52
2023-05-21T21:15:45.883Z,47.15
2023-05-21T21:18:12.916Z,46.75
2023-05-21T21:20:41.679Z,46.33
2023-05-21T21:23:08.917Z,46.91
2023-05-21T21:25:36.129Z,46.59
2023-05-21T21:28:03.087Z,46.48
2023-05-21T21:30:29.985Z,46.34
2023-05-21T21:32:56.881Z,47.09
2023-05-21T21:35:23.806Z,46.79
2023-05-21T21:37:50.654Z,46.82
2023-05-21T21:40:17.605Z,46.78
2023-05-21T21:42:44.424Z,46.34
2023-05-21T21:45:11.575Z,46.49
2023-05-21T21:47:38.536Z,46.23
2023-05-21T21:50:06.774Z,46.52
2023-05-21T21:52:33.751Z,46.53
2023-05-21T21:55:00.573Z,47.01
2023-05-21T21:57:29.647Z,46.89
2023-05-21T21:59:57.070Z,46.77
2023-05-21T22:02:23.935Z,46.43
2023-05-21T22:04:50.973Z,46.61
2023-05-21T22:07:18.367Z,46.55
2023-05-21T22:09:45.868Z,46.47
2023-05-21T22:12:13.310Z,46.16
2023-05-21T22:14:40.265Z,46.32
2023-05-21T22:17:08.699Z,46.21
2023-05-21T22:19:36.122Z,45.91
2023-05-21T22:22:04.395Z,46.02
2023-05-21T22:24:33.136Z,46.83
2023-05-21T22:27:00.330Z,46.55
2023-05-21T22:29:27.218Z,46.70
2023-05-21T22:31:54.111Z,46.23
2023-05-21T22:34:21.066Z,46.01
2023-05-21T22:36:47.918Z,46.75
2023-05-21T22:39:14.958Z,46.85
2023-05-21T22:41:42.327Z,46.50
2023-05-21T22:44:09.494Z,46.46
2023-05-21T22:46:36.434Z,46.59
2023-05-21T22:49:03.354Z,46.85
2023-05-21T22:51:34.984Z,46.27
2023-05-21T22:54:02.130Z,46.78
2023-05-21T22:56:29.443Z,46.90
2023-05-21T22:58:56.851Z,46.84
2023-05-21T23:01:24.131Z,46.85
2023-05-21T23:03:51.814Z,47.12
2023-05-21T23:06:19.036Z,46.74
2023-05-21T23:08:46.132Z,47.01
2023-05-21T23:11:13.016Z,46.67
2023-05-21T23:13:39.979Z,46.62
2023-05-21T23:16:07.673Z,46.79
2023-05-21T23:18:35.362Z,46.59
2023-05-21T23:21:02.614Z,46.75
2023-05-21T23:23:29.653Z,46.80
2023-05-21T23:25:57.930Z,46.29
2023-05-21T23:28:25.793Z,46.56
2023-05-21T23:30:53.185Z,46.75
2023-05-21T23:33:20.133Z,46.43
2023-05-21T23:35:47.004Z,47.04
2023-05-21T23:38:14.019Z,46.60
2023-05-21T23:40:41.012Z,46.63
2023-05-21T23:43:08.183Z,46.62
2023-05-21T23:45:35.020Z,46.89
2023-05-21T23:48:01.983Z,46.22
2023-05-21T23:50:28.974Z,46.43
2023-05-21T23:52:55.959Z,46.83
2023-05-21T23:55:22.797Z,46.39
2023-05-21T23:57:49.644Z,46.53
